createdAt,value
2024-03-10T00:00:26.741Z,10.90
2024-03-10T00:03:12.942Z,10.90
2024-03-10T00:05:58.474Z,10.90
2024-03-10T00:08:44.016Z,10.80
2024-03-10T00:11:29.890Z,10.80
2024-03-10T00:14:17.966Z,10.70
2024-03-10T00:17:03.838Z,10.70
2024-03-10T00:19:49.878Z,10.60
2024-03-10T00:22:39.741Z,10.60
2024-03-10T00:25:26.926Z,10.50
2024-03-10T00:28:12.751Z,10.50
2024-03-10T00:30:59.437Z,10.40
2024-03-10T00:33:46.162Z,10.40
2024-03-10T00:36:31.386Z,10.30
2024-03-10T00:39:17.102Z,10.30
2024-03-10T00:42:02.662Z,10.20
2024-03-10T00:44:48.890Z,10.30
2024-03-10T00:47:36.485Z,10.20
2024-03-10T00:50:22.712Z,10.20
2024-03-10T00:53:08.244Z,10.20
2024-03-10T00:55:53.837Z,10.20
2024-03-10T00:58:41.058Z,10.20
2024-03-10T01:01:26.907Z,10.20
2024-03-10T01:04:12.810Z,10.20
2024-03-10T01:06:59.316Z,10.20
2024-03-10T01:09:45.919Z,10.10
2024-03-10T01:12:31.339Z,10.00
2024-03-10T01:15:17.112Z,9.90
2024-03-10T01:18:06.070Z,9.80
2024-03-10T01:20:51.114Z,9.60
2024-03-10T01:23:36.996Z,9.50
2024-03-10T01:26:22.464Z,9.40
2024-03-10T01:29:11.540Z,9.40
2024-03-10T01:31:57.369Z,9.40
2024-03-10T01:34:43.441Z,9.50
2024-03-10T01:37:29.029Z,9.50
2024-03-10T01:40:14.891Z,9.50
2024-03-10T01:43:00.665Z,9.50
2024-03-10T01:45:47.068Z,9.50
2024-03-10T01:48:33.731Z,9.50
2024-03-10T01:51:21.954Z,9.40
2024-03-10T01:54:09.848Z,9.40
2024-03-10T01:56:55.871Z,9.40
2024-03-10T01:59:41.958Z,9.40
2024-03-10T02:02:27.580Z,9.40
2024-03-10T02:05:13.090Z,9.50
2024-03-10T02:07:58.555Z,9.50
2024-03-10T02:10:49.629Z,9.60
2024-03-10T02:13:35.622Z,9.60
2024-03-10T02:16:21.084Z,9.70
2024-03-10T02:19:15.249Z,9.80
2024-03-10T02:22:00.562Z,9.70
2024-03-10T02:24:49.632Z,9.70
2024-03-10T02:27:43.678Z,9.70
2024-03-10T02:30:32.893Z,9.70
2024-03-10T02:33:37.071Z,9.80
2024-03-10T02:36:40.689Z,9.80
2024-03-10T02:39:44.655Z,9.80
2024-03-10T02:42:50.139Z,9.80
2024-03-10T02:45:54.210Z,9.80
2024-03-10T02:48:40.403Z,9.80
2024-03-10T02:51:27.597Z,9.70
2024-03-10T02:54:12.781Z,9.70
2024-03-10T02:56:58.807Z,9.70
2024-03-10T02:59:48.420Z,9.70
2024-03-10T03:02:36.347Z,9.70
2024-03-10T03:05:22.925Z,9.70
2024-03-10T03:08:09.386Z,9.70
2024-03-10T03:10:55.945Z,9.60
2024-03-10T03:13:41.067Z,9.60
2024-03-10T03:16:27.106Z,9.70
2024-03-10T03:19:14.545Z,9.60
2024-03-10T03:22:04.471Z,9.60
2024-03-10T03:24:50.133Z,9.60
2024-03-10T03:27:39.294Z,9.60
2024-03-10T03:30:25.007Z,9.60
2024-03-10T03:33:10.881Z,9.60
2024-03-10T03:35:56.819Z,9.60
2024-03-10T03:38:45.622Z,9.60
2024-03-10T03:41:31.052Z,9.60
2024-03-10T03:44:16.930Z,9.60
2024-03-10T03:47:02.296Z,9.60
2024-03-10T03:49:48.141Z,9.60
2024-03-10T03:52:33.670Z,9.60
2024-03-10T03:55:19.888Z,9.60
2024-03-10T03:58:05.226Z,9.60
2024-03-10T04:00:50.797Z,9.60
2024-03-10T04:03:37.010Z,9.60
2024-03-10T04:06:25.286Z,9.60
2024-03-10T04:09:14.500Z,9.60
2024-03-10T04:12:00.677Z,9.60
2024-03-10T04:14:46.538Z,9.50
2024-03-10T04:17:32.996Z,9.50
2024-03-10T04:20:18.706Z,9.50
2024-03-10T04:23:06.909Z,9.50
2024-03-10T04:25:53.476Z,9.50
2024-03-10T04:28:39.909Z,9.50
2024-03-10T04:31:25.149Z,9.50
2024-03-10T04:34:12.286Z,9.50
2024-03-10T04:36:57.672Z,9.50
2024-03-10T04:39:42.881Z,9.50
2024-03-10T04:42:28.836Z,9.50
2024-03-10T04:45:14.594Z,9.50
2024-03-10T04:47:59.807Z,9.50
2024-03-10T04:50:45.667Z,9.50
2024-03-10T04:53:32.029Z,9.50
2024-03-10T04:56:18.048Z,9.50
2024-03-10T04:59:05.365Z,9.50
2024-03-10T05:01:55.391Z,9.40
2024-03-10T05:04:41.296Z,9.40
2024-03-10T05:07:27.910Z,9.40
2024-03-10T05:10:13.288Z,9.40
2024-03-10T05:12:59.586Z,9.30
2024-03-10T05:15:46.490Z,9.20
2024-03-10T05:18:33.613Z,9.20
2024-03-10T05:21:18.879Z,9.10
2024-03-10T05:24:04.731Z,9.00
2024-03-10T05:26:50.574Z,8.90
2024-03-10T05:29:36.140Z,8.90
2024-03-10T05:32:21.911Z,8.80
2024-03-10T05:35:13.614Z,8.70
2024-03-10T05:37:59.134Z,8.70
2024-03-10T05:40:44.343Z,8.60
2024-03-10T05:43:30.425Z,8.50
2024-03-10T05:46:16.218Z,8.50
2024-03-10T05:49:02.793Z,8.40
2024-03-10T05:51:49.128Z,8.40
2024-03-10T05:54:35.941Z,8.40
2024-03-10T05:57:21.833Z,8.30
2024-03-10T06:00:15.688Z,8.30
2024-03-10T06:03:01.814Z,8.30
2024-03-10T06:05:47.502Z,8.30
2024-03-10T06:08:33.141Z,8.30
2024-03-10T06:11:20.929Z,8.30
2024-03-10T06:14:06.806Z,8.30
2024-03-10T06:16:52.218Z,8.30
2024-03-10T06:19:55.926Z,8.20
2024-03-10T06:22:59.831Z,8.20
2024-03-10T06:25:45.361Z,8.20
2024-03-10T06:28:30.950Z,8.10
2024-03-10T06:31:21.016Z,8.10
2024-03-10T06:34:06.215Z,8.10
2024-03-10T06:36:51.833Z,8.10
2024-03-10T06:39:37.637Z,8.10
2024-03-10T06:42:23.943Z,8.10
2024-03-10T06:45:10.989Z,8.10
2024-03-10T06:47:57.214Z,8.10
2024-03-10T06:50:45.046Z,8.20
2024-03-10T06:53:33.660Z,8.10
2024-03-10T06:56:19.775Z,8.10
2024-03-10T06:59:05.187Z,8.10
2024-03-10T07:01:50.644Z,8.20
2024-03-10T07:04:36.145Z,8.20
2024-03-10T07:07:22.169Z,8.30
2024-03-10T07:10:11.429Z,8.30
2024-03-10T07:12:57.283Z,8.40
2024-03-10T07:15:42.792Z,8.50
2024-03-10T07:18:28.397Z,8.50
2024-03-10T07:21:18.382Z,8.60
2024-03-10T07:24:05.295Z,8.60
2024-03-10T07:26:51.082Z,8.70
2024-03-10T07:29:36.503Z,8.80
2024-03-10T07:32:24.666Z,8.90
2024-03-10T07:35:10.825Z,9.00
2024-03-10T07:37:56.438Z,9.10
2024-03-10T07:40:41.911Z,9.20
2024-03-10T07:43:27.294Z,9.30
2024-03-10T07:46:12.907Z,9.40
2024-03-10T07:49:01.890Z,9.50
2024-03-10T07:51:47.972Z,9.60
2024-03-10T07:54:34.349Z,9.70
2024-03-10T07:57:20.001Z,9.70
2024-03-10T08:00:06.437Z,9.90
2024-03-10T08:02:51.782Z,9.90
2024-03-10T08:05:37.308Z,9.90
2024-03-10T08:08:23.200Z,10.00
2024-03-10T08:11:10.700Z,10.00
2024-03-10T08:13:58.913Z,10.10
2024-03-10T08:16:47.747Z,10.10
2024-03-10T08:19:33.682Z,10.10
2024-03-10T08:22:19.115Z,10.20
2024-03-10T08:25:05.638Z,10.20
2024-03-10T08:27:53.128Z,10.30
2024-03-10T08:30:38.662Z,10.40
2024-03-10T08:33:24.399Z,10.40
2024-03-10T08:36:10.267Z,10.50
2024-03-10T08:38:55.955Z,10.60
2024-03-10T08:41:41.339Z,10.60
2024-03-10T08:44:27.079Z,10.70
2024-03-10T08:47:13.588Z,10.70
2024-03-10T08:50:00.879Z,10.80
2024-03-10T08:52:46.505Z,10.90
2024-03-10T08:55:33.397Z,11.00
2024-03-10T08:58:18.921Z,11.10
2024-03-10T09:01:05.969Z,11.30
2024-03-10T09:03:51.551Z,11.50
2024-03-10T09:06:37.111Z,11.60
2024-03-10T09:09:23.660Z,11.70
2024-03-10T09:12:09.338Z,11.90
2024-03-10T09:14:55.107Z,12.00
2024-03-10T09:17:43.058Z,12.10
2024-03-10T09:20:28.673Z,12.20
2024-03-10T09:23:14.253Z,12.40
2024-03-10T09:26:01.723Z,12.50
2024-03-10T09:28:46.934Z,12.50
2024-03-10T09:31:32.513Z,12.60
2024-03-10T09:34:18.042Z,12.70
2024-03-10T09:37:03.632Z,12.80
2024-03-10T09:39:49.498Z,12.90
2024-03-10T09:42:35.859Z,13.00
2024-03-10T09:45:22.408Z,13.10
2024-03-10T09:48:11.136Z,13.30
2024-03-10T09:50:58.503Z,13.40
2024-03-10T09:53:45.049Z,13.50
2024-03-10T09:56:31.147Z,13.60
2024-03-10T09:59:43.365Z,13.80
2024-03-10T10:02:36.793Z,13.90
2024-03-10T10:05:26.454Z,13.90
2024-03-10T10:08:13.804Z,14.00
2024-03-10T10:11:00.005Z,14.10
2024-03-10T10:14:07.320Z,14.30
2024-03-10T10:16:56.889Z,14.50
2024-03-10T10:19:46.213Z,14.70
2024-03-10T10:22:35.977Z,14.90
2024-03-10T10:25:28.572Z,15.00
2024-03-10T10:28:14.745Z,15.00
2024-03-10T10:31:17.084Z,15.00
2024-03-10T10:34:03.439Z,15.10
2024-03-10T10:36:48.960Z,15.20
2024-03-10T10:39:34.655Z,15.20
2024-03-10T10:42:29.896Z,15.30
2024-03-10T10:45:21.074Z,15.30
2024-03-10T10:48:09.981Z,15.30
2024-03-10T10:50:55.704Z,15.30
2024-03-10T10:53:44.536Z,15.20
2024-03-10T10:56:29.948Z,15.10
2024-03-10T10:59:21.737Z,14.90
2024-03-10T11:02:07.112Z,14.90
2024-03-10T11:04:55.811Z,14.70
2024-03-10T11:07:45.286Z,14.60
2024-03-10T11:11:00.498Z,14.60
2024-03-10T11:13:47.756Z,14.60
2024-03-10T11:16:36.442Z,14.60
2024-03-10T11:19:23.145Z,14.60
2024-03-10T11:22:10.436Z,14.60
2024-03-10T11:25:10.513Z,14.60
2024-03-10T11:27:59.361Z,14.60
2024-03-10T11:30:46.172Z,14.60
2024-03-10T11:33:32.590Z,14.60
2024-03-10T11:36:18.860Z,14.60
2024-03-10T11:39:08.869Z,14.60
2024-03-10T11:41:55.251Z,14.70
2024-03-10T11:44:41.577Z,14.70
2024-03-10T11:47:27.574Z,14.80
2024-03-10T11:50:12.875Z,14.80
2024-03-10T11:52:59.419Z,14.90
2024-03-10T11:55:45.593Z,15.00
2024-03-10T11:58:31.040Z,15.00
2024-03-10T12:01:20.236Z,15.10
2024-03-10T12:04:10.822Z,15.30
2024-03-10T12:06:58.375Z,15.60
2024-03-10T12:09:43.701Z,15.80
2024-03-10T12:12:33.773Z,16.10
2024-03-10T12:15:20.882Z,16.40
2024-03-10T12:18:07.206Z,16.70
2024-03-10T12:20:54.514Z,17.00
2024-03-10T12:23:42.015Z,17.10
2024-03-10T12:26:28.102Z,17.30
2024-03-10T12:29:14.011Z,17.40
2024-03-10T12:32:09.729Z,17.50
2024-03-10T12:34:55.154Z,17.60
2024-03-10T12:37:41.911Z,17.70
2024-03-10T12:40:27.364Z,17.90
2024-03-10T12:43:12.576Z,18.10
2024-03-10T12:45:58.949Z,18.40
2024-03-10T12:48:47.374Z,18.70
2024-03-10T12:51:33.852Z,18.80
2024-03-10T12:54:22.547Z,18.80
2024-03-10T12:57:08.062Z,18.90
2024-03-10T12:59:56.556Z,18.90
2024-03-10T13:02:43.728Z,19.00
2024-03-10T13:05:30.262Z,19.00
2024-03-10T13:08:18.336Z,19.00
2024-03-10T13:11:07.203Z,19.00
2024-03-10T13:13:59.362Z,19.20
2024-03-10T13:16:46.397Z,19.30
2024-03-10T13:19:31.896Z,19.30
2024-03-10T13:22:20.541Z,19.40
2024-03-10T13:25:07.253Z,19.40
2024-03-10T13:27:52.498Z,19.50
2024-03-10T13:30:39.642Z,19.50
2024-03-10T13:33:25.786Z,19.40
2024-03-10T13:36:17.463Z,19.40
2024-03-10T13:39:05.060Z,19.40
2024-03-10T13:41:53.068Z,19.30
2024-03-10T13:44:38.598Z,19.40
2024-03-10T13:47:25.700Z,19.50
2024-03-10T13:50:16.703Z,19.60
2024-03-10T13:53:02.244Z,19.70
2024-03-10T13:55:49.018Z,19.80
2024-03-10T13:58:38.142Z,19.80
2024-03-10T14:01:24.134Z,19.70
2024-03-10T14:04:12.906Z,19.60
2024-03-10T14:06:59.010Z,19.50
2024-03-10T14:09:48.364Z,19.30
2024-03-10T14:12:38.278Z,19.20
2024-03-10T14:15:30.189Z,19.10
2024-03-10T14:18:15.715Z,19.10
2024-03-10T14:21:02.460Z,18.90
2024-03-10T14:23:48.322Z,18.90
2024-03-10T14:26:33.916Z,18.80
2024-03-10T14:29:20.823Z,18.60
2024-03-10T14:32:07.542Z,18.40
2024-03-10T14:34:55.180Z,18.10
2024-03-10T14:37:41.760Z,17.80
2024-03-10T14:40:30.719Z,17.60
2024-03-10T14:43:20.772Z,17.50
2024-03-10T14:46:06.389Z,17.40
2024-03-10T14:48:52.416Z,17.40
2024-03-10T14:51:37.646Z,17.40
2024-03-10T14:54:23.415Z,17.40
2024-03-10T14:57:09.259Z,17.40
2024-03-10T15:00:00.850Z,17.40
2024-03-10T15:02:47.227Z,17.40
2024-03-10T15:05:34.223Z,17.50
2024-03-10T15:08:19.932Z,17.40
2024-03-10T15:11:08.741Z,17.50
2024-03-10T15:13:54.173Z,17.50
2024-03-10T15:16:42.304Z,17.50
2024-03-10T15:19:28.393Z,17.50
2024-03-10T15:22:13.843Z,17.50
2024-03-10T15:24:59.011Z,17.60
2024-03-10T15:27:45.378Z,17.60
2024-03-10T15:30:31.323Z,17.70
2024-03-10T15:33:17.770Z,17.60
2024-03-10T15:36:06.178Z,17.50
2024-03-10T15:38:51.367Z,17.40
2024-03-10T15:41:36.949Z,17.30
2024-03-10T15:44:26.057Z,17.10
2024-03-10T15:47:11.768Z,17.00
2024-03-10T15:49:58.755Z,16.80
2024-03-10T15:52:46.980Z,16.70
2024-03-10T15:55:33.115Z,16.60
2024-03-10T15:58:18.499Z,16.50
2024-03-10T16:01:04.241Z,16.40
2024-03-10T16:03:55.720Z,16.30
2024-03-10T16:06:41.040Z,16.20
2024-03-10T16:09:26.924Z,16.00
2024-03-10T16:12:15.567Z,16.00
2024-03-10T16:15:01.621Z,16.00
2024-03-10T16:17:47.445Z,16.00
2024-03-10T16:20:34.259Z,15.90
2024-03-10T16:23:20.090Z,16.00
2024-03-10T16:26:07.287Z,16.00
2024-03-10T16:28:52.934Z,16.20
2024-03-10T16:31:39.091Z,16.30
2024-03-10T16:34:24.635Z,16.50
2024-03-10T16:37:25.014Z,16.60
2024-03-10T16:40:13.878Z,16.80
2024-03-10T16:42:59.433Z,16.90
2024-03-10T16:45:48.971Z,16.70
2024-03-10T16:48:34.761Z,16.60
2024-03-10T16:51:21.570Z,16.40
2024-03-10T16:54:07.015Z,16.20
2024-03-10T16:56:53.563Z,16.00
2024-03-10T16:59:39.911Z,15.80
2024-03-10T17:02:26.209Z,15.60
2024-03-10T17:05:11.974Z,15.30
2024-03-10T17:07:59.545Z,15.10
2024-03-10T17:10:48.429Z,14.90
2024-03-10T17:13:34.181Z,14.70
2024-03-10T17:16:20.356Z,14.50
2024-03-10T17:19:06.134Z,14.30
2024-03-10T17:21:51.935Z,14.20
2024-03-10T17:24:37.240Z,14.00
2024-03-10T17:27:22.796Z,13.90
2024-03-10T17:30:09.795Z,13.80
2024-03-10T17:32:55.751Z,13.60
2024-03-10T17:35:41.554Z,13.50
2024-03-10T17:38:27.833Z,13.40
2024-03-10T17:41:13.906Z,13.20
2024-03-10T17:44:00.305Z,13.20
2024-03-10T17:46:46.064Z,13.00
2024-03-10T17:49:31.326Z,13.00
2024-03-10T17:52:19.637Z,12.90
2024-03-10T17:55:07.912Z,12.80
2024-03-10T17:57:53.618Z,12.70
2024-03-10T18:00:39.686Z,12.60
2024-03-10T18:03:25.367Z,12.60
2024-03-10T18:06:11.698Z,12.50
2024-03-10T18:08:57.816Z,12.40
2024-03-10T18:11:45.292Z,12.30
2024-03-10T18:14:32.267Z,12.30
2024-03-10T18:17:19.390Z,12.20
2024-03-10T18:20:06.130Z,12.20
2024-03-10T18:22:51.944Z,12.10
2024-03-10T18:25:37.403Z,12.10
2024-03-10T18:28:24.088Z,12.10
2024-03-10T18:31:09.412Z,12.10
2024-03-10T18:33:54.971Z,12.00
2024-03-10T18:36:41.716Z,12.00
2024-03-10T18:39:28.087Z,12.00
2024-03-10T18:42:15.083Z,11.90
2024-03-10T18:45:00.899Z,11.90
2024-03-10T18:47:46.673Z,11.90
2024-03-10T18:50:32.692Z,11.90
2024-03-10T18:53:18.377Z,11.80
2024-03-10T18:56:06.760Z,11.90
2024-03-10T18:58:52.916Z,11.80
2024-03-10T19:01:39.925Z,11.80
2024-03-10T19:04:27.421Z,11.80
2024-03-10T19:07:12.762Z,11.70
2024-03-10T19:09:58.216Z,11.70
2024-03-10T19:12:46.568Z,11.70
2024-03-10T19:15:32.499Z,11.60
2024-03-10T19:18:17.903Z,11.60
2024-03-10T19:21:04.197Z,11.60
2024-03-10T19:23:52.913Z,11.50
2024-03-10T19:26:38.413Z,11.50
2024-03-10T19:29:23.932Z,11.50
2024-03-10T19:32:09.522Z,11.50
2024-03-10T19:34:54.992Z,11.40
2024-03-10T19:37:40.645Z,11.40
2024-03-10T19:40:26.329Z,11.40
2024-03-10T19:43:14.348Z,11.40
2024-03-10T19:45:59.980Z,11.40
2024-03-10T19:48:45.140Z,11.40
2024-03-10T19:51:30.791Z,11.40
2024-03-10T19:54:16.550Z,11.40
2024-03-10T19:57:02.456Z,11.40
2024-03-10T19:59:48.488Z,11.30
2024-03-10T20:02:33.927Z,11.30
2024-03-10T20:05:19.579Z,11.30
2024-03-10T20:08:05.490Z,11.20
2024-03-10T20:10:53.376Z,11.20
2024-03-10T20:13:40.030Z,11.20
2024-03-10T20:16:25.680Z,11.20
2024-03-10T20:19:12.310Z,11.20
2024-03-10T20:21:57.978Z,11.10
2024-03-10T20:24:43.643Z,11.10
2024-03-10T20:27:29.384Z,11.10
2024-03-10T20:30:15.623Z,11.10
2024-03-10T20:33:01.448Z,11.10
2024-03-10T20:35:48.231Z,11.10
2024-03-10T20:38:34.032Z,11.10
2024-03-10T20:41:19.971Z,11.00
2024-03-10T20:44:05.448Z,11.00
2024-03-10T20:46:51.134Z,10.90
2024-03-10T20:49:36.873Z,10.90
2024-03-10T20:52:22.633Z,10.90
2024-03-10T20:55:08.602Z,10.90
2024-03-10T20:57:54.172Z,10.90
2024-03-10T21:00:40.669Z,10.80
2024-03-10T21:03:26.525Z,10.80
2024-03-10T21:06:12.033Z,10.80
2024-03-10T21:08:57.370Z,10.80
2024-03-10T21:11:43.972Z,10.80
2024-03-10T21:14:29.430Z,10.80
2024-03-10T21:17:14.926Z,10.80
2024-03-10T21:20:01.394Z,10.80
2024-03-10T21:22:47.460Z,10.80
2024-03-10T21:25:33.950Z,10.80
2024-03-10T21:28:19.924Z,10.80
2024-03-10T21:31:07.819Z,10.80
2024-03-10T21:33:54.545Z,10.80
2024-03-10T21:36:39.838Z,10.90
2024-03-10T21:39:25.173Z,10.80
2024-03-10T21:42:10.815Z,10.90
2024-03-10T21:44:56.418Z,10.80
2024-03-10T21:47:43.270Z,10.80
2024-03-10T21:50:28.851Z,10.80
2024-03-10T21:53:16.569Z,10.80
2024-03-10T21:56:04.881Z,10.80
2024-03-10T21:58:50.914Z,10.80
2024-03-10T22:01:38.665Z,10.80
2024-03-10T22:04:24.326Z,10.80
2024-03-10T22:07:09.788Z,10.80
2024-03-10T22:09:57.476Z,10.80
2024-03-10T22:12:45.168Z,10.80
2024-03-10T22:15:31.418Z,10.80
2024-03-10T22:18:17.578Z,10.80
2024-03-10T22:21:03.970Z,10.80
2024-03-10T22:23:49.688Z,10.80
2024-03-10T22:29:23.647Z,10.90
2024-03-10T22:32:11.927Z,10.80
2024-03-10T22:34:58.851Z,10.80
2024-03-10T22:37:47.129Z,10.80
2024-03-10T22:40:32.933Z,10.80
2024-03-10T22:43:19.355Z,10.80
2024-03-10T22:46:04.883Z,10.80
2024-03-10T22:48:50.418Z,10.80
2024-03-10T22:51:38.612Z,10.80
2024-03-10T22:54:25.832Z,10.90
2024-03-10T22:57:11.188Z,10.80
2024-03-10T23:00:00.850Z,10.80
2024-03-10T23:02:48.450Z,10.80
2024-03-10T23:05:35.884Z,10.70
2024-03-10T23:08:21.608Z,10.70
2024-03-10T23:11:09.770Z,10.60
2024-03-10T23:13:57.796Z,10.60
2024-03-10T23:16:44.667Z,10.60
2024-03-10T23:19:30.512Z,10.50
2024-03-10T23:22:15.886Z,10.50
2024-03-10T23:25:01.695Z,10.50
2024-03-10T23:27:49.911Z,10.50
2024-03-10T23:30:35.726Z,10.50
2024-03-10T23:33:23.746Z,10.40
2024-03-10T23:36:09.969Z,10.40
2024-03-10T23:38:56.578Z,10.40
2024-03-10T23:41:43.384Z,10.40
2024-03-10T23:44:29.028Z,10.30
2024-03-10T23:47:14.772Z,10.30
2024-03-10T23:50:00.853Z,10.30
2024-03-10T23:52:48.927Z,10.30
2024-03-10T23:55:45.479Z,10.30
2024-03-10T23:58:32.147Z,10.30
